ラロトンガ の空港の天気 - METARとTAF

ラロトンガ国際空港 ( NCRG / RAR ) - クック諸島 アバルア (ラロトンガ島)
飛行場実況気象(Metar)
観測時間11/15 04:30 CKT (11/15 14:30 UTC)
風向・風速東 2m/s
視程10km以上
天気現象
全天の4割程度の雲 雲底高度 490m
気温23℃
湿度94%
気圧1014hPa
METARNCRG 151430Z AUTO 09004KT 030V140 9999 SCT016/// 23/22 Q1014
過去の天気等 Google飛行場航空写真 Wunderground天気予報

過去48時間のMETAR

飛行場予報(TAF)
発表時間: 11/15 01:07 CKT (11/15 11:07 UTC)
予報対象時間: 15日2時 CKT ~ 16日2時 CKT
風向・風速東 4m/s
視程10km以上
少しの雲 雲底高度 580m
全天の4割程度の雲 雲底高度 760m
TAF NCRG 151107Z 1512/1612 08007KT 9999 FEW019 SCT025